createdAt,value
2023-04-07T00:00:43.668Z,101356.16
2023-04-07T00:03:11.773Z,101353.84
2023-04-07T00:05:39.243Z,101357.13
2023-04-07T00:08:06.225Z,101351.09
2023-04-07T00:10:33.176Z,101356.09
2023-04-07T00:13:02.775Z,101350.22
2023-04-07T00:15:32.414Z,101347.44
2023-04-07T00:17:59.712Z,101342.47
2023-04-07T00:20:26.400Z,101347.69
2023-04-07T00:22:53.182Z,101348.91
2023-04-07T00:25:20.110Z,101347.84
2023-04-07T00:27:46.920Z,101337.28
2023-04-07T00:30:16.196Z,101344.94
2023-04-07T00:32:43.273Z,101343.28
2023-04-07T00:35:12.250Z,101338.88
2023-04-07T00:37:38.922Z,101343.66
2023-04-07T00:40:06.434Z,101339.34
2023-04-07T00:42:36.262Z,101341.16
2023-04-07T00:45:03.253Z,101346.28
2023-04-07T00:47:29.878Z,101339.25
2023-04-07T00:49:56.740Z,101344.38
2023-04-07T00:52:28.856Z,101332.25
2023-04-07T00:54:55.994Z,101337.19
2023-04-07T00:57:23.550Z,101329.69
2023-04-07T00:59:53.318Z,101334.50
2023-04-07T01:02:33.463Z,101330.56
2023-04-07T01:05:15.843Z,101327.09
2023-04-07T01:08:26.711Z,101331.25
2023-04-07T01:10:57.456Z,101331.75
2023-04-07T01:13:46.432Z,101326.91
2023-04-07T01:16:17.352Z,101331.41
2023-04-07T01:18:45.068Z,101329.09
2023-04-07T01:21:15.123Z,101330.44
2023-04-07T01:24:06.385Z,101325.06
2023-04-07T01:26:33.744Z,101320.78
2023-04-07T01:29:35.737Z,101324.81
2023-04-07T01:32:08.333Z,101318.06
2023-04-07T01:34:35.686Z,101321.41
2023-04-07T01:37:03.015Z,101309.91
2023-04-07T01:39:30.410Z,101311.81
2023-04-07T01:41:57.713Z,101308.59
2023-04-07T01:44:24.930Z,101308.13
2023-04-07T01:46:51.668Z,101306.31
2023-04-07T01:49:18.775Z,101308.66
2023-04-07T01:51:50.257Z,101310.00
2023-04-07T01:54:17.854Z,101313.00
2023-04-07T01:56:45.222Z,101311.81
2023-04-07T01:59:12.323Z,101309.69
2023-04-07T02:01:39.246Z,101313.63
2023-04-07T02:04:14.813Z,101312.00
2023-04-07T02:06:59.749Z,101301.19
2023-04-07T02:09:28.066Z,101308.09
2023-04-07T02:11:56.190Z,101313.03
2023-04-07T02:14:24.837Z,101307.09
2023-04-07T02:16:52.798Z,101304.78
2023-04-07T02:19:19.769Z,101301.06
2023-04-07T02:21:52.161Z,101301.00
2023-04-07T02:24:22.266Z,101297.19
2023-04-07T02:26:49.114Z,101299.16
2023-04-07T02:29:16.010Z,101298.34
2023-04-07T02:31:42.630Z,101290.47
2023-04-07T02:34:09.346Z,101294.13
2023-04-07T02:36:36.530Z,101285.47
2023-04-07T02:39:03.792Z,101294.56
2023-04-07T02:41:30.467Z,101297.28
2023-04-07T02:43:57.525Z,101286.72
2023-04-07T02:46:24.452Z,101292.22
2023-04-07T02:48:51.880Z,101287.69
2023-04-07T02:51:21.048Z,101292.63
2023-04-07T02:53:47.755Z,101296.25
2023-04-07T02:56:15.783Z,101291.91
2023-04-07T02:58:42.405Z,101286.19
2023-04-07T03:01:09.027Z,101294.56
2023-04-07T03:03:35.905Z,101297.91
2023-04-07T03:06:02.676Z,101293.44
2023-04-07T03:08:29.318Z,101292.56
2023-04-07T03:10:56.136Z,101292.63
2023-04-07T03:13:22.971Z,101293.88
2023-04-07T03:15:49.612Z,101284.84
2023-04-07T03:18:16.305Z,101299.34
2023-04-07T03:20:44.605Z,101280.63
2023-04-07T03:23:11.475Z,101283.59
2023-04-07T03:25:38.447Z,101286.63
2023-04-07T03:28:05.231Z,101285.69
2023-04-07T03:30:31.909Z,101285.91
2023-04-07T03:32:58.689Z,101275.19
2023-04-07T03:35:25.348Z,101281.25
2023-04-07T03:37:51.987Z,101283.72
2023-04-07T03:40:18.705Z,101280.63
2023-04-07T03:42:46.710Z,101280.06
2023-04-07T03:45:14.634Z,101286.88
2023-04-07T03:47:41.410Z,101283.28
2023-04-07T03:50:08.458Z,101275.50
2023-04-07T03:52:35.146Z,101283.31
2023-04-07T03:55:01.780Z,101278.53
2023-04-07T03:57:28.446Z,101279.63
2023-04-07T03:59:56.210Z,101289.47
2023-04-07T04:02:23.010Z,101287.06
2023-04-07T04:04:49.864Z,101288.28
2023-04-07T04:07:16.589Z,101281.88
2023-04-07T04:09:43.291Z,101287.94
2023-04-07T04:12:09.912Z,101286.06
2023-04-07T04:14:36.734Z,101282.41
2023-04-07T04:17:05.285Z,101284.22
2023-04-07T04:19:34.962Z,101284.50
2023-04-07T04:22:01.706Z,101283.59
2023-04-07T04:24:28.356Z,101274.88
2023-04-07T04:26:54.997Z,101280.81
2023-04-07T04:29:21.926Z,101281.75
2023-04-07T04:31:48.985Z,101279.31
2023-04-07T04:34:16.040Z,101274.13
2023-04-07T04:36:42.906Z,101270.00
2023-04-07T04:39:09.852Z,101266.91
2023-04-07T04:41:37.057Z,101272.97
2023-04-07T04:44:03.985Z,101274.03
2023-04-07T04:46:31.930Z,101281.09
2023-04-07T04:48:58.813Z,101271.88
2023-04-07T04:51:26.307Z,101276.59
2023-04-07T04:53:53.295Z,101272.72
2023-04-07T04:56:21.381Z,101267.50
2023-04-07T04:58:48.187Z,101274.63
2023-04-07T05:01:15.174Z,101281.09
2023-04-07T05:03:43.917Z,101282.31
2023-04-07T05:06:10.775Z,101284.38
2023-04-07T05:08:37.793Z,101279.53
2023-04-07T05:11:04.732Z,101292.81
2023-04-07T05:13:31.607Z,101286.25
2023-04-07T05:15:58.533Z,101295.44
2023-04-07T05:18:25.722Z,101290.78
2023-04-07T05:20:52.406Z,101287.06
2023-04-07T05:23:19.142Z,101290.59
2023-04-07T05:25:45.950Z,101288.34
2023-04-07T05:28:12.686Z,101293.91
2023-04-07T05:30:39.473Z,101291.78
2023-04-07T05:33:06.267Z,101290.31
2023-04-07T05:35:33.003Z,101288.13
2023-04-07T05:37:59.726Z,101285.03
2023-04-07T05:40:26.413Z,101287.97
2023-04-07T05:42:53.126Z,101283.09
2023-04-07T05:45:20.168Z,101287.88
2023-04-07T05:47:50.121Z,101286.09
2023-04-07T05:50:18.270Z,101292.53
2023-04-07T05:52:46.265Z,101295.00
2023-04-07T05:55:17.683Z,101297.56
2023-04-07T05:57:44.620Z,101294.53
2023-04-07T06:00:12.111Z,101290.56
2023-04-07T06:02:40.219Z,101291.53
2023-04-07T06:05:07.797Z,101288.94
2023-04-07T06:07:34.547Z,101284.63
2023-04-07T06:10:01.322Z,101288.94
2023-04-07T06:12:28.159Z,101284.16
2023-04-07T06:14:56.186Z,101285.91
2023-04-07T06:17:23.824Z,101279.97
2023-04-07T06:19:50.798Z,101279.56
2023-04-07T06:22:17.516Z,101280.69
2023-04-07T06:24:44.317Z,101288.00
2023-04-07T06:27:11.037Z,101281.06
2023-04-07T06:29:38.233Z,101285.50
2023-04-07T06:32:05.143Z,101284.78
2023-04-07T06:34:31.989Z,101291.03
2023-04-07T06:36:59.474Z,101288.78
2023-04-07T06:39:27.497Z,101296.34
2023-04-07T06:41:54.203Z,101291.31
2023-04-07T06:44:20.996Z,101294.00
2023-04-07T06:46:50.590Z,101293.19
2023-04-07T06:49:17.428Z,101291.69
2023-04-07T06:51:44.248Z,101298.06
2023-04-07T06:54:14.067Z,101298.72
2023-04-07T06:56:41.783Z,101301.41
2023-04-07T06:59:09.010Z,101300.03
2023-04-07T07:01:36.080Z,101290.16
2023-04-07T07:04:04.162Z,101300.75
2023-04-07T07:06:31.880Z,101296.59
2023-04-07T07:09:00.906Z,101301.81
2023-04-07T07:11:27.704Z,101308.84
2023-04-07T07:13:54.947Z,101305.41
2023-04-07T07:16:24.025Z,101301.38
2023-04-07T07:18:51.679Z,101299.72
2023-04-07T07:21:19.165Z,101300.63
2023-04-07T07:23:46.326Z,101303.13
2023-04-07T07:26:13.266Z,101300.59
2023-04-07T07:28:40.577Z,101306.44
2023-04-07T07:31:13.140Z,101321.06
2023-04-07T07:33:41.555Z,101323.69
2023-04-07T07:36:09.023Z,101325.94
2023-04-07T07:38:37.661Z,101319.00
2023-04-07T07:41:04.823Z,101323.38
2023-04-07T07:43:31.835Z,101323.53
2023-04-07T07:45:58.777Z,101324.41
2023-04-07T07:48:27.657Z,101317.06
2023-04-07T07:50:56.935Z,101323.13
2023-04-07T07:53:23.888Z,101319.38
2023-04-07T07:55:50.687Z,101328.91
2023-04-07T07:58:17.531Z,101324.88
2023-04-07T08:00:44.306Z,101325.94
2023-04-07T08:03:11.569Z,101328.53
2023-04-07T08:05:39.466Z,101328.72
2023-04-07T08:08:08.696Z,101329.63
2023-04-07T08:10:35.764Z,101329.63
2023-04-07T08:13:02.586Z,101337.63
2023-04-07T08:15:29.482Z,101334.47
2023-04-07T08:17:56.611Z,101339.56
2023-04-07T08:20:24.240Z,101345.09
2023-04-07T08:22:51.272Z,101342.59
2023-04-07T08:25:18.233Z,101343.59
2023-04-07T08:27:45.749Z,101334.75
2023-04-07T08:30:13.168Z,101343.34
2023-04-07T08:32:46.276Z,101347.69
2023-04-07T08:35:13.187Z,101348.59
2023-04-07T08:37:45.859Z,101343.13
2023-04-07T08:40:13.301Z,101340.66
2023-04-07T08:42:43.195Z,101349.19
2023-04-07T08:45:13.234Z,101352.19
2023-04-07T08:47:42.182Z,101352.16
2023-04-07T08:50:11.424Z,101357.34
2023-04-07T08:52:45.755Z,101359.84
2023-04-07T08:55:12.732Z,101356.94
2023-04-07T08:57:39.996Z,101353.63
2023-04-07T09:00:07.458Z,101355.44
2023-04-07T09:02:36.307Z,101356.31
2023-04-07T09:05:04.993Z,101358.25
2023-04-07T09:07:33.510Z,101357.22
2023-04-07T09:10:01.722Z,101363.31
2023-04-07T09:12:29.528Z,101360.53
2023-04-07T09:15:02.019Z,101359.53
2023-04-07T09:17:29.765Z,101359.72
2023-04-07T09:19:58.017Z,101354.63
2023-04-07T09:22:39.028Z,101362.50
2023-04-07T09:25:18.725Z,101354.94
2023-04-07T09:27:59.712Z,101358.31
2023-04-07T09:30:29.556Z,101353.94
2023-04-07T09:32:57.121Z,101352.50
2023-04-07T09:35:25.148Z,101344.66
2023-04-07T09:38:04.872Z,101355.97
2023-04-07T09:40:32.772Z,101353.31
2023-04-07T09:42:59.875Z,101353.03
2023-04-07T09:45:34.498Z,101339.47
2023-04-07T09:48:07.636Z,101343.50
2023-04-07T09:50:36.924Z,101344.63
2023-04-07T09:53:04.637Z,101346.34
2023-04-07T09:55:34.162Z,101343.78
2023-04-07T09:58:01.951Z,101347.22
2023-04-07T10:00:29.110Z,101344.72
2023-04-07T10:02:56.661Z,101351.63
2023-04-07T10:05:24.068Z,101346.41
2023-04-07T10:07:52.000Z,101343.88
2023-04-07T10:10:18.925Z,101343.09
2023-04-07T10:12:46.303Z,101351.59
2023-04-07T10:15:16.328Z,101346.28
2023-04-07T10:17:48.228Z,101353.97
2023-04-07T10:20:21.336Z,101347.03
2023-04-07T10:22:52.582Z,101349.59
2023-04-07T10:25:21.821Z,101345.25
2023-04-07T10:27:56.343Z,101350.84
2023-04-07T10:30:28.591Z,101348.41
2023-04-07T10:32:55.722Z,101348.91
2023-04-07T10:35:23.918Z,101351.88
2023-04-07T10:38:14.055Z,101351.94
2023-04-07T10:40:43.857Z,101344.13
2023-04-07T10:43:15.065Z,101350.91
2023-04-07T10:45:48.562Z,101345.81
2023-04-07T10:48:17.193Z,101337.09
2023-04-07T10:51:03.622Z,101336.25
2023-04-07T10:53:31.550Z,101345.81
2023-04-07T10:55:59.349Z,101342.34
2023-04-07T10:58:29.800Z,101334.75
2023-04-07T11:01:10.883Z,101338.13
2023-04-07T11:03:39.159Z,101330.16
2023-04-07T11:06:08.290Z,101330.41
2023-04-07T11:08:42.772Z,101329.56
2023-04-07T11:11:21.002Z,101334.81
2023-04-07T11:13:49.598Z,101329.78
2023-04-07T11:16:18.476Z,101326.31
2023-04-07T11:18:47.938Z,101322.22
2023-04-07T11:21:19.381Z,101320.47
2023-04-07T11:23:48.011Z,101324.81
2023-04-07T11:26:16.048Z,101322.47
2023-04-07T11:28:54.952Z,101316.19
2023-04-07T11:31:23.478Z,101326.94
2023-04-07T11:33:55.002Z,101326.03
2023-04-07T11:36:32.393Z,101317.22
2023-04-07T11:38:59.975Z,101321.69
2023-04-07T11:41:28.620Z,101316.41
2023-04-07T11:44:14.543Z,101318.84
2023-04-07T11:46:58.263Z,101318.06
2023-04-07T11:49:28.623Z,101315.38
2023-04-07T11:52:07.323Z,101316.38
2023-04-07T11:54:41.861Z,101313.84
2023-04-07T11:57:10.553Z,101311.03
2023-04-07T11:59:37.488Z,101311.97
2023-04-07T12:02:04.835Z,101307.75
2023-04-07T12:04:34.015Z,101312.09
2023-04-07T12:07:10.479Z,101311.22
2023-04-07T12:09:38.090Z,101312.03
2023-04-07T12:12:07.892Z,101311.88
2023-04-07T12:14:36.142Z,101303.00
2023-04-07T12:17:03.872Z,101311.63
2023-04-07T12:19:36.027Z,101306.53
2023-04-07T12:22:11.100Z,101312.03
2023-04-07T12:24:37.883Z,101314.72
2023-04-07T12:27:04.601Z,101301.66
2023-04-07T12:29:31.692Z,101301.63
2023-04-07T12:31:58.765Z,101299.88
2023-04-07T12:34:25.712Z,101306.13
2023-04-07T12:36:54.813Z,101297.31
2023-04-07T12:39:21.940Z,101313.06
2023-04-07T12:41:49.245Z,101307.88
2023-04-07T12:44:16.706Z,101309.66
2023-04-07T12:46:43.626Z,101305.53
2023-04-07T12:49:10.490Z,101301.28
2023-04-07T12:51:38.623Z,101302.06
2023-04-07T12:54:05.420Z,101303.13
2023-04-07T12:56:32.542Z,101296.09
2023-04-07T12:58:59.447Z,101295.19
2023-04-07T13:01:26.306Z,101293.25
2023-04-07T13:03:53.643Z,101287.31
2023-04-07T13:06:24.479Z,101290.53
2023-04-07T13:08:51.788Z,101297.38
2023-04-07T13:11:18.567Z,101298.28
2023-04-07T13:13:45.473Z,101292.13
2023-04-07T13:16:12.388Z,101296.75
2023-04-07T13:18:39.229Z,101289.88
2023-04-07T13:21:40.598Z,101289.94
2023-04-07T13:23:52.937Z,101288.16
2023-04-07T13:26:19.729Z,101292.44
2023-04-07T13:28:47.974Z,101291.56
2023-04-07T13:31:16.557Z,101304.69
2023-04-07T13:33:43.586Z,101299.47
2023-04-07T13:36:10.565Z,101298.59
2023-04-07T13:38:37.519Z,101294.28
2023-04-07T13:41:04.293Z,101300.66
2023-04-07T13:43:31.204Z,101301.41
2023-04-07T13:45:57.991Z,101297.88
2023-04-07T13:48:24.824Z,101296.06
2023-04-07T13:50:51.574Z,101295.09
2023-04-07T13:53:20.659Z,101299.44
2023-04-07T13:55:47.754Z,101301.88
2023-04-07T13:58:14.589Z,101300.16
2023-04-07T14:00:41.698Z,101296.56
2023-04-07T14:03:08.879Z,101293.31
2023-04-07T14:05:37.032Z,101292.56
2023-04-07T14:08:03.747Z,101290.72
2023-04-07T14:10:30.552Z,101289.88
2023-04-07T14:12:57.699Z,101291.59
2023-04-07T14:15:24.794Z,101291.56
2023-04-07T14:17:51.894Z,101280.41
2023-04-07T14:20:18.791Z,101281.28
2023-04-07T14:22:45.880Z,101281.31
2023-04-07T14:25:12.705Z,101277.81
2023-04-07T14:27:40.797Z,101279.59
2023-04-07T14:30:08.262Z,101285.88
2023-04-07T14:32:35.187Z,101281.63
2023-04-07T14:35:02.378Z,101286.03
2023-04-07T14:37:29.460Z,101278.97
2023-04-07T14:40:02.444Z,101273.78
2023-04-07T14:42:30.564Z,101279.06
2023-04-07T14:44:59.029Z,101279.94
2023-04-07T14:47:25.923Z,101271.25
2023-04-07T14:49:53.579Z,101271.16
2023-04-07T14:52:22.152Z,101276.50
2023-04-07T14:54:49.144Z,101280.69
2023-04-07T14:57:17.008Z,101275.56
2023-04-07T14:59:44.135Z,101278.09
2023-04-07T15:02:11.272Z,101285.06
2023-04-07T15:04:38.661Z,101286.66
2023-04-07T15:07:05.881Z,101284.00
2023-04-07T15:09:32.682Z,101285.94
2023-04-07T15:12:00.516Z,101292.94
2023-04-07T15:14:27.396Z,101281.44
2023-04-07T15:16:54.194Z,101287.53
2023-04-07T15:19:20.892Z,101286.53
2023-04-07T15:21:47.687Z,101285.84
2023-04-07T15:24:16.256Z,101284.00
2023-04-07T15:26:43.734Z,101283.94
2023-04-07T15:29:10.763Z,101284.81
2023-04-07T15:31:37.446Z,101270.81
2023-04-07T15:34:04.218Z,101277.06
2023-04-07T15:36:31.531Z,101284.88
2023-04-07T15:39:05.214Z,101282.31
2023-04-07T15:41:41.524Z,101279.53
2023-04-07T15:44:08.153Z,101276.00
2023-04-07T15:46:34.859Z,101282.94
2023-04-07T15:49:01.889Z,101277.66
2023-04-07T15:51:38.275Z,101278.72
2023-04-07T15:54:06.467Z,101284.78
2023-04-07T15:56:33.208Z,101286.50
2023-04-07T15:59:00.079Z,101284.59
2023-04-07T16:01:26.851Z,101278.44
2023-04-07T16:03:53.988Z,101285.50
2023-04-07T16:06:20.914Z,101285.41
2023-04-07T16:08:47.624Z,101288.97
2023-04-07T16:11:14.296Z,101288.91
2023-04-07T16:13:41.011Z,101295.66
2023-04-07T16:16:07.796Z,101286.91
2023-04-07T16:18:34.501Z,101293.22
2023-04-07T16:21:03.012Z,101291.41
2023-04-07T16:23:31.140Z,101292.25
2023-04-07T16:25:57.787Z,101286.28
2023-04-07T16:28:24.490Z,101292.38
2023-04-07T16:30:51.106Z,101289.78
2023-04-07T16:33:17.952Z,101289.84
2023-04-07T16:35:45.011Z,101288.03
2023-04-07T16:38:12.437Z,101294.09
2023-04-07T16:40:39.143Z,101295.00
2023-04-07T16:43:09.592Z,101296.88
2023-04-07T16:45:41.189Z,101289.88
2023-04-07T16:48:08.946Z,101293.06
2023-04-07T16:50:35.624Z,101301.00
2023-04-07T16:53:02.593Z,101300.09
2023-04-07T16:55:29.255Z,101308.63
2023-04-07T16:57:55.936Z,101299.91
2023-04-07T17:00:22.624Z,101302.56
2023-04-07T17:02:49.408Z,101308.59
2023-04-07T17:05:17.279Z,101306.97
2023-04-07T17:07:52.636Z,101307.66
2023-04-07T17:10:28.028Z,101312.88
2023-04-07T17:12:56.853Z,101312.22
2023-04-07T17:15:24.821Z,101317.25
2023-04-07T17:17:53.179Z,101316.38
2023-04-07T17:20:22.871Z,101319.72
2023-04-07T17:22:49.618Z,101317.13
2023-04-07T17:25:18.833Z,101316.28
2023-04-07T17:27:47.926Z,101324.97
2023-04-07T17:30:15.016Z,101322.56
2023-04-07T17:32:44.633Z,101331.31
2023-04-07T17:35:15.216Z,101333.81
2023-04-07T17:37:43.584Z,101329.44
2023-04-07T17:40:12.614Z,101322.19
2023-04-07T17:42:39.319Z,101326.69
2023-04-07T17:45:08.218Z,101333.69
2023-04-07T17:47:35.486Z,101328.44
2023-04-07T17:50:02.239Z,101337.13
2023-04-07T17:52:31.911Z,101336.38
2023-04-07T17:54:59.320Z,101342.50
2023-04-07T17:57:25.993Z,101339.78
2023-04-07T17:59:52.754Z,101338.88
2023-04-07T18:02:19.640Z,101345.72
2023-04-07T18:04:46.780Z,101351.78
2023-04-07T18:07:13.923Z,101339.66
2023-04-07T18:09:42.776Z,101351.84
2023-04-07T18:12:09.494Z,101335.31
2023-04-07T18:14:36.586Z,101346.53
2023-04-07T18:17:03.318Z,101348.22
2023-04-07T18:19:30.243Z,101354.38
2023-04-07T18:21:56.972Z,101356.09
2023-04-07T18:24:23.720Z,101360.59
2023-04-07T18:26:50.782Z,101359.38
2023-04-07T18:29:17.667Z,101358.63
2023-04-07T18:31:44.449Z,101364.06
2023-04-07T18:34:11.581Z,101360.44
2023-04-07T18:36:40.769Z,101370.03
2023-04-07T18:39:07.683Z,101377.06
2023-04-07T18:41:35.081Z,101382.19
2023-04-07T18:44:01.919Z,101377.06
2023-04-07T18:46:28.769Z,101384.13
2023-04-07T18:48:55.607Z,101380.75
2023-04-07T18:51:22.313Z,101378.94
2023-04-07T18:53:50.351Z,101386.69
2023-04-07T18:56:17.844Z,101389.47
2023-04-07T18:58:45.732Z,101387.66
2023-04-07T19:01:15.801Z,101389.50
2023-04-07T19:03:42.699Z,101399.84
2023-04-07T19:06:09.506Z,101403.06
2023-04-07T19:08:36.962Z,101402.34
2023-04-07T19:11:04.412Z,101397.94
2023-04-07T19:13:31.258Z,101395.47
2023-04-07T19:15:57.965Z,101408.44
2023-04-07T19:18:25.586Z,101407.63
2023-04-07T19:20:52.430Z,101399.66
2023-04-07T19:23:19.968Z,101391.13
2023-04-07T19:25:46.688Z,101394.63
2023-04-07T19:28:14.023Z,101391.91
2023-04-07T19:30:41.042Z,101388.41
2023-04-07T19:33:08.139Z,101387.53
2023-04-07T19:35:38.887Z,101391.88
2023-04-07T19:38:08.209Z,101392.84
2023-04-07T19:40:36.106Z,101393.59
2023-04-07T19:43:02.906Z,101405.06
2023-04-07T19:45:30.157Z,101396.41
2023-04-07T19:48:02.783Z,101410.97
2023-04-07T19:50:42.606Z,101404.81
2023-04-07T19:53:16.249Z,101395.38
2023-04-07T19:55:43.865Z,101394.22
2023-04-07T19:58:11.272Z,101400.34
2023-04-07T20:00:38.633Z,101399.47
2023-04-07T20:03:06.689Z,101404.66
2023-04-07T20:05:34.450Z,101392.69
2023-04-07T20:08:01.889Z,101394.31
2023-04-07T20:10:28.879Z,101383.91
2023-04-07T20:12:56.083Z,101392.81
2023-04-07T20:15:24.706Z,101389.38
2023-04-07T20:17:51.967Z,101397.31
2023-04-07T20:20:19.075Z,101392.78
2023-04-07T20:22:45.825Z,101399.00
2023-04-07T20:25:12.685Z,101406.69
2023-04-07T20:27:39.832Z,101410.16
2023-04-07T20:30:07.650Z,101422.47
2023-04-07T20:32:34.406Z,101409.41
2023-04-07T20:35:03.293Z,101415.41
2023-04-07T20:37:30.224Z,101430.19
2023-04-07T20:39:59.608Z,101425.19
2023-04-07T20:42:26.710Z,101422.53
2023-04-07T20:44:58.950Z,101413.84
2023-04-07T20:47:25.707Z,101421.63
2023-04-07T20:49:55.476Z,101425.97
2023-04-07T20:52:22.430Z,101429.50
2023-04-07T20:54:49.521Z,101419.94
2023-04-07T20:57:18.693Z,101430.13
2023-04-07T20:59:48.540Z,101428.50
2023-04-07T21:02:16.357Z,101432.97
2023-04-07T21:04:43.765Z,101430.13
2023-04-07T21:07:11.473Z,101436.41
2023-04-07T21:09:38.235Z,101435.31
2023-04-07T21:12:04.941Z,101437.19
2023-04-07T21:14:32.176Z,101442.44
2023-04-07T21:16:59.270Z,101438.84
2023-04-07T21:19:26.150Z,101442.34
2023-04-07T21:21:53.913Z,101431.22
2023-04-07T21:24:21.448Z,101429.56
2023-04-07T21:26:48.200Z,101439.00
2023-04-07T21:29:14.916Z,101429.34
2023-04-07T21:31:42.341Z,101436.16
2023-04-07T21:34:09.115Z,101431.81
2023-04-07T21:36:36.084Z,101434.56
2023-04-07T21:39:02.895Z,101421.41
2023-04-07T21:41:29.610Z,101436.97
2023-04-07T21:43:56.665Z,101428.47
2023-04-07T21:46:23.763Z,101430.97
2023-04-07T21:48:51.580Z,101427.50
2023-04-07T21:51:18.455Z,101438.09
2023-04-07T21:53:47.807Z,101424.13
2023-04-07T21:56:14.605Z,101423.22
2023-04-07T21:58:44.111Z,101428.34
2023-04-07T22:01:10.906Z,101424.00
2023-04-07T22:03:37.783Z,101427.63
2023-04-07T22:06:04.948Z,101429.25
2023-04-07T22:08:31.837Z,101426.72
2023-04-07T22:10:58.793Z,101420.38
2023-04-07T22:13:26.440Z,101420.34
2023-04-07T22:15:53.338Z,101427.56
2023-04-07T22:18:22.034Z,101420.66
2023-04-07T22:20:49.020Z,101415.22
2023-04-07T22:23:15.761Z,101424.09
2023-04-07T22:25:42.803Z,101428.44
2023-04-07T22:28:09.435Z,101431.97
2023-04-07T22:30:36.572Z,101429.25
2023-04-07T22:33:04.463Z,101436.25
2023-04-07T22:35:31.682Z,101434.56
2023-04-07T22:37:58.455Z,101431.97
2023-04-07T22:40:25.500Z,101433.69
2023-04-07T22:42:52.260Z,101430.25
2023-04-07T22:45:19.382Z,101428.53
2023-04-07T22:47:46.054Z,101424.97
2023-04-07T22:50:12.863Z,101431.06
2023-04-07T22:52:39.559Z,101438.78
2023-04-07T22:55:09.683Z,101430.09
2023-04-07T22:57:36.334Z,101433.56
2023-04-07T23:00:05.932Z,101419.78
2023-04-07T23:02:33.084Z,101433.75
2023-04-07T23:05:00.026Z,101439.78
2023-04-07T23:07:27.128Z,101438.91
2023-04-07T23:09:53.854Z,101436.25
2023-04-07T23:12:20.744Z,101447.69
2023-04-07T23:14:47.409Z,101448.41
2023-04-07T23:17:14.094Z,101445.91
2023-04-07T23:19:40.954Z,101445.97
2023-04-07T23:22:07.635Z,101445.94
2023-04-07T23:24:34.527Z,101443.31
2023-04-07T23:27:02.087Z,101446.81
2023-04-07T23:29:28.904Z,101443.22
2023-04-07T23:31:55.624Z,101433.59
2023-04-07T23:34:22.482Z,101427.72
2023-04-07T23:36:49.176Z,101423.22
2023-04-07T23:39:15.905Z,101430.97
2023-04-07T23:41:42.507Z,101426.56
2023-04-07T23:44:09.217Z,101415.28
2023-04-07T23:46:35.988Z,101429.91
2023-04-07T23:49:02.975Z,101424.72
2023-04-07T23:51:30.472Z,101429.19
2023-04-07T23:53:58.243Z,101432.59
2023-04-07T23:56:25.011Z,101415.13
2023-04-07T23:58:51.826Z,101430.03
